Wichita Falls, Texas
Current Conditions -  °F | °C
As of 11:15 AM on Saturday 20 Dec 2014 (Local Time) from KCWC Reporting Station
Overcast Overcast  
Wind Chill: 39°   Ceiling: 1200
Heat Index: 44°   Visibility: 7mi
Dew Point: 40°   Wind: 7mph
Humidity: 89%   Direction: 130°SE
Pressure: 30.26"   Gusts: NA
Location:  33.91°N, 98.5°W
Report Text: KCWC 201715Z AUTO 13006KT 7SM SCT007 BKN012 OVC024 06/05 A3026 RMK AO2 T00640047
Loading
Personal Weather Stations






























Interactive Weather Map New forecast layout! Learn more

10-Day Weather Forecast

Advertisements
Track Severe Weather on mobile